createdAt,value
2019-01-06T00:00:01.405Z,85.12
2019-01-06T00:02:52.610Z,85.09
2019-01-06T00:05:51.099Z,85.10
2019-01-06T00:08:47.727Z,85.08
2019-01-06T00:11:36.285Z,85.09
2019-01-06T00:14:37.588Z,85.07
2019-01-06T00:17:39.216Z,85.08
2019-01-06T00:20:27.185Z,85.04
2019-01-06T00:23:19.458Z,85.03
2019-01-06T00:26:08.884Z,85.04
2019-01-06T00:28:59.337Z,85.01
2019-01-06T00:31:51.662Z,85.01
2019-01-06T00:34:41.039Z,85.05
2019-01-06T00:37:30.395Z,85.04
2019-01-06T00:40:18.493Z,85.03
2019-01-06T00:43:12.191Z,85.04
2019-01-06T00:46:00.198Z,85.04
2019-01-06T00:48:45.472Z,85.06
2019-01-06T00:51:35.176Z,85.07
2019-01-06T00:54:42.783Z,85.08
2019-01-06T00:57:30.868Z,85.06
2019-01-06T01:00:32.635Z,85.07
2019-01-06T01:03:13.515Z,85.08
2019-01-06T01:06:02.801Z,85.12
2019-01-06T01:08:53.497Z,85.12
2019-01-06T01:11:48.933Z,85.11
2019-01-06T01:14:38.441Z,85.12
2019-01-06T01:17:26.671Z,85.14
2019-01-06T01:20:16.971Z,85.16
2019-01-06T01:23:05.157Z,85.14
2019-01-06T01:25:57.422Z,85.16
2019-01-06T01:28:46.799Z,85.19
2019-01-06T01:31:35.771Z,85.18
2019-01-06T01:34:30.912Z,85.21
2019-01-06T01:37:20.225Z,85.23
2019-01-06T01:40:15.880Z,85.25
2019-01-06T01:43:07.290Z,85.26
2019-01-06T01:46:01.066Z,85.27
2019-01-06T01:48:55.168Z,85.26
2019-01-06T01:51:43.084Z,85.28
2019-01-06T01:54:31.461Z,85.28
2019-01-06T01:57:36.715Z,85.28
2019-01-06T02:00:26.505Z,85.29
2019-01-06T02:03:33.820Z,85.33
2019-01-06T02:06:24.105Z,85.32
2019-01-06T02:09:09.286Z,85.33
2019-01-06T02:11:58.526Z,85.33
2019-01-06T02:14:41.483Z,85.35
2019-01-06T02:17:29.144Z,85.33
2019-01-06T02:20:24.897Z,85.36
2019-01-06T02:23:12.831Z,85.34
2019-01-06T02:26:05.644Z,85.36
2019-01-06T02:28:53.953Z,85.37
2019-01-06T02:31:46.639Z,85.36
2019-01-06T02:34:45.041Z,85.38
2019-01-06T02:37:36.066Z,85.38
2019-01-06T02:40:24.443Z,85.38
2019-01-06T02:43:20.266Z,85.38
2019-01-06T02:46:11.261Z,85.40
2019-01-06T02:49:00.743Z,85.55
2019-01-06T02:51:51.240Z,85.55
2019-01-06T02:54:41.610Z,85.40
2019-01-06T02:57:30.104Z,85.40
2019-01-06T03:00:18.472Z,85.40
2019-01-06T03:03:07.715Z,85.38
2019-01-06T03:06:00.058Z,85.40
2019-01-06T03:08:52.382Z,85.42
2019-01-06T03:11:44.778Z,85.41
2019-01-06T03:14:40.497Z,85.42
2019-01-06T03:17:29.481Z,85.42
2019-01-06T03:20:32.093Z,85.43
2019-01-06T03:23:36.872Z,85.44
2019-01-06T03:26:24.709Z,85.43
2019-01-06T03:29:16.018Z,85.43
2019-01-06T03:32:04.493Z,85.44
2019-01-06T03:34:57.190Z,85.43
2019-01-06T03:37:44.928Z,85.41
2019-01-06T03:40:46.407Z,85.43
2019-01-06T03:43:38.586Z,85.42
2019-01-06T03:46:30.999Z,85.42
2019-01-06T03:49:19.022Z,85.43
2019-01-06T03:52:07.232Z,85.43
2019-01-06T03:55:03.996Z,85.40
2019-01-06T03:58:02.405Z,85.41
2019-01-06T04:00:50.468Z,85.40
2019-01-06T04:03:38.821Z,85.41
2019-01-06T04:06:31.163Z,85.40
2019-01-06T04:09:22.001Z,85.39
2019-01-06T04:12:11.396Z,85.40
2019-01-06T04:15:04.601Z,85.40
2019-01-06T04:17:53.056Z,85.39
2019-01-06T04:20:49.682Z,85.38
2019-01-06T04:23:39.371Z,85.39
2019-01-06T04:26:31.844Z,85.38
2019-01-06T04:29:28.369Z,85.37
2019-01-06T04:32:16.804Z,85.36
2019-01-06T04:34:58.488Z,85.35
2019-01-06T04:37:56.923Z,85.35
2019-01-06T04:40:46.515Z,85.05
2019-01-06T04:43:35.000Z,85.29
2019-01-06T04:46:23.059Z,85.29
2019-01-06T04:49:15.833Z,85.35
2019-01-06T04:52:04.077Z,85.34
2019-01-06T04:54:50.052Z,85.34
2019-01-06T04:57:37.788Z,85.33
2019-01-06T05:00:45.833Z,85.33
2019-01-06T05:03:33.453Z,85.33
2019-01-06T05:06:25.731Z,85.31
2019-01-06T05:09:15.846Z,85.31
2019-01-06T05:12:05.427Z,85.29
2019-01-06T05:15:00.634Z,85.29
2019-01-06T05:17:48.702Z,85.30
2019-01-06T05:20:41.024Z,85.31
2019-01-06T05:23:46.063Z,85.32
2019-01-06T05:26:34.489Z,85.31
2019-01-06T05:29:36.399Z,85.28
2019-01-06T05:32:25.906Z,85.32
2019-01-06T05:35:14.248Z,85.28
2019-01-06T05:38:03.530Z,85.29
2019-01-06T05:40:51.618Z,85.30
2019-01-06T05:43:40.533Z,85.30
2019-01-06T05:46:33.027Z,85.32
2019-01-06T05:49:22.447Z,85.31
2019-01-06T05:52:14.265Z,85.31
2019-01-06T05:55:02.748Z,85.31
2019-01-06T05:57:54.816Z,85.31
2019-01-06T06:00:44.237Z,85.32
2019-01-06T06:03:32.583Z,85.31
2019-01-06T06:06:17.421Z,85.31
2019-01-06T06:09:07.519Z,85.31
2019-01-06T06:11:57.791Z,85.31
2019-01-06T06:14:59.141Z,85.32
2019-01-06T06:18:05.448Z,85.31
2019-01-06T06:21:16.625Z,85.31
2019-01-06T06:24:00.169Z,85.31
2019-01-06T06:27:03.923Z,85.32
2019-01-06T06:30:05.230Z,85.02
2019-01-06T06:32:56.258Z,85.02
2019-01-06T06:36:02.487Z,85.31
2019-01-06T06:38:45.950Z,85.31
2019-01-06T06:41:38.483Z,85.29
2019-01-06T06:44:33.754Z,85.28
2019-01-06T06:47:29.009Z,85.29
2019-01-06T06:50:37.263Z,85.29
2019-01-06T06:53:25.544Z,85.30
2019-01-06T06:56:23.640Z,85.29
2019-01-06T06:59:02.138Z,85.27
2019-01-06T07:02:28.310Z,85.27
2019-01-06T07:05:17.744Z,85.26
2019-01-06T07:08:16.281Z,85.26
2019-01-06T07:11:15.763Z,85.26
2019-01-06T07:14:05.272Z,85.25
2019-01-06T07:17:49.035Z,85.25
2019-01-06T07:20:41.208Z,85.24
2019-01-06T07:23:29.093Z,85.43
2019-01-06T07:26:18.032Z,85.43
2019-01-06T07:29:06.402Z,85.16
2019-01-06T07:32:04.837Z,85.18
2019-01-06T07:35:00.670Z,85.13
2019-01-06T07:38:07.259Z,85.13
2019-01-06T07:41:02.596Z,85.10
2019-01-06T07:43:49.819Z,85.08
2019-01-06T07:46:42.621Z,85.05
2019-01-06T07:49:30.787Z,85.04
2019-01-06T07:52:25.090Z,84.99
2019-01-06T07:55:12.237Z,84.96
2019-01-06T07:58:00.690Z,84.91
2019-01-06T08:00:48.478Z,84.87
2019-01-06T08:03:42.499Z,84.82
2019-01-06T08:06:31.699Z,84.78
2019-01-06T08:09:20.932Z,84.74
2019-01-06T08:12:19.094Z,84.73
2019-01-06T08:15:07.504Z,84.68
2019-01-06T08:18:17.195Z,84.68
2019-01-06T08:21:06.449Z,84.68
2019-01-06T08:23:56.263Z,84.67
2019-01-06T08:26:44.733Z,84.66
2019-01-06T08:29:34.404Z,84.63
2019-01-06T08:32:28.192Z,84.61
2019-01-06T08:35:16.646Z,84.45
2019-01-06T08:38:15.687Z,84.45
2019-01-06T08:41:14.152Z,84.58
2019-01-06T08:44:09.880Z,84.55
2019-01-06T08:46:58.158Z,84.54
2019-01-06T08:49:48.594Z,84.49
2019-01-06T08:52:39.485Z,84.45
2019-01-06T08:55:28.015Z,84.40
2019-01-06T08:58:27.905Z,84.25
2019-01-06T09:01:23.503Z,84.22
2019-01-06T09:04:18.882Z,84.09
2019-01-06T09:07:23.722Z,83.98
2019-01-06T09:10:11.723Z,83.81
2019-01-06T09:13:01.218Z,83.45
2019-01-06T09:15:49.712Z,83.37
2019-01-06T09:18:45.791Z,83.17
2019-01-06T09:21:35.391Z,83.04
2019-01-06T09:24:38.187Z,82.82
2019-01-06T09:27:31.981Z,82.56
2019-01-06T09:30:33.456Z,82.40
2019-01-06T09:33:21.535Z,82.19
2019-01-06T09:36:20.162Z,82.04
2019-01-06T09:39:24.580Z,81.78
2019-01-06T09:42:06.704Z,81.58
2019-01-06T09:45:13.959Z,81.40
2019-01-06T09:48:03.324Z,81.30
2019-01-06T09:50:51.343Z,81.10
2019-01-06T09:53:39.723Z,80.83
2019-01-06T09:56:28.981Z,80.68
2019-01-06T09:59:27.365Z,80.58
2019-01-06T10:02:26.145Z,80.55
2019-01-06T10:05:15.557Z,80.44
2019-01-06T10:08:11.905Z,80.34
2019-01-06T10:11:00.095Z,80.10
2019-01-06T10:14:09.219Z,79.85
2019-01-06T10:16:57.297Z,79.66
2019-01-06T10:19:46.824Z,79.52
2019-01-06T10:22:48.077Z,79.57
2019-01-06T10:25:40.531Z,79.64
2019-01-06T10:28:30.422Z,79.39
2019-01-06T10:31:22.577Z,79.36
2019-01-06T10:34:27.706Z,79.39
2019-01-06T10:37:26.729Z,79.53
2019-01-06T10:40:16.207Z,79.54
2019-01-06T10:43:14.726Z,79.79
2019-01-06T10:46:13.100Z,79.97
2019-01-06T10:49:01.535Z,79.89
2019-01-06T10:52:02.982Z,80.07
2019-01-06T10:54:58.510Z,80.18
2019-01-06T10:57:48.635Z,80.08
2019-01-06T11:00:36.840Z,80.08
2019-01-06T11:03:29.504Z,80.27
2019-01-06T11:06:17.421Z,80.30
2019-01-06T11:09:08.116Z,80.24
2019-01-06T11:11:57.892Z,79.87
2019-01-06T11:14:47.005Z,79.54
2019-01-06T11:17:40.377Z,79.54
2019-01-06T11:20:34.788Z,79.24
2019-01-06T11:23:22.648Z,78.97
2019-01-06T11:26:17.909Z,79.00
2019-01-06T11:29:07.519Z,78.51
2019-01-06T11:31:58.077Z,78.52
2019-01-06T11:34:53.207Z,78.67
2019-01-06T11:37:36.798Z,78.65
2019-01-06T11:40:35.666Z,78.79
2019-01-06T11:43:25.032Z,78.61
2019-01-06T11:46:14.988Z,78.11
2019-01-06T11:49:03.330Z,78.28
2019-01-06T11:51:53.204Z,78.28
2019-01-06T11:54:57.834Z,78.18
2019-01-06T11:57:55.946Z,78.35
2019-01-06T12:00:44.227Z,78.31
2019-01-06T12:03:44.035Z,78.03
2019-01-06T12:06:32.454Z,77.47
2019-01-06T12:09:20.807Z,77.40
2019-01-06T12:12:19.032Z,76.82
2019-01-06T12:15:25.166Z,77.22
2019-01-06T12:18:35.867Z,76.81
2019-01-06T12:21:23.968Z,76.75
2019-01-06T12:24:25.517Z,76.91
2019-01-06T12:27:33.202Z,76.70
2019-01-06T12:30:25.882Z,76.23
2019-01-06T12:33:24.218Z,76.11
2019-01-06T12:36:20.528Z,76.02
2019-01-06T12:39:08.623Z,75.96
2019-01-06T12:42:09.134Z,75.90
2019-01-06T12:45:11.199Z,76.06
2019-01-06T12:48:16.099Z,76.19
2019-01-06T12:51:05.747Z,76.37
2019-01-06T12:53:59.576Z,76.50
2019-01-06T12:56:51.918Z,76.36
2019-01-06T12:59:39.710Z,76.55
2019-01-06T13:02:29.339Z,77.02
2019-01-06T13:05:19.807Z,77.02
2019-01-06T13:08:22.520Z,78.30
2019-01-06T13:11:12.587Z,78.30
2019-01-06T13:14:07.568Z,79.18
2019-01-06T13:16:59.994Z,79.77
2019-01-06T13:19:48.203Z,80.17
2019-01-06T13:22:37.480Z,80.44
2019-01-06T13:25:27.246Z,80.61
2019-01-06T13:28:15.482Z,80.80
2019-01-06T13:31:03.295Z,80.93
2019-01-06T13:33:52.598Z,80.86
2019-01-06T13:36:41.931Z,80.79
2019-01-06T13:39:42.156Z,80.73
2019-01-06T13:42:32.118Z,80.72
2019-01-06T13:45:26.621Z,80.75
2019-01-06T13:48:14.686Z,80.71
2019-01-06T13:50:59.852Z,80.85
2019-01-06T13:54:04.518Z,80.96
2019-01-06T13:56:52.746Z,80.97
2019-01-06T13:59:51.602Z,80.97
2019-01-06T14:02:48.860Z,80.98
2019-01-06T14:05:50.532Z,80.97
2019-01-06T14:08:38.150Z,81.03
2019-01-06T14:15:02.676Z,80.91
2019-01-06T14:17:58.191Z,80.92
2019-01-06T14:21:00.023Z,81.01
2019-01-06T14:23:57.586Z,81.07
2019-01-06T14:26:59.178Z,81.04
2019-01-06T14:29:51.791Z,81.14
2019-01-06T14:32:45.431Z,81.24
2019-01-06T14:35:51.211Z,81.23
2019-01-06T14:38:33.550Z,81.29
2019-01-06T14:41:21.991Z,81.38
2019-01-06T14:44:20.868Z,81.38
2019-01-06T14:47:25.775Z,81.44
2019-01-06T14:50:16.559Z,81.38
2019-01-06T14:53:10.789Z,81.37
2019-01-06T14:56:14.933Z,81.37
2019-01-06T14:59:00.343Z,81.49
2019-01-06T15:01:50.893Z,81.39
2019-01-06T15:04:40.463Z,81.35
2019-01-06T15:07:44.715Z,81.12
2019-01-06T15:10:43.430Z,81.06
2019-01-06T15:13:30.201Z,81.25
2019-01-06T15:16:25.842Z,81.25
2019-01-06T15:19:27.667Z,80.72
2019-01-06T15:22:12.778Z,80.28
2019-01-06T15:25:02.343Z,79.63
2019-01-06T15:27:51.665Z,79.00
2019-01-06T15:30:40.238Z,78.68
2019-01-06T15:33:22.265Z,78.17
2019-01-06T15:36:21.073Z,77.66
2019-01-06T15:39:10.339Z,77.22
2019-01-06T15:41:59.034Z,77.31
2019-01-06T15:44:51.361Z,77.40
2019-01-06T15:47:55.902Z,77.28
2019-01-06T15:50:57.567Z,77.22
2019-01-06T15:53:47.120Z,77.28
2019-01-06T15:56:44.028Z,77.29
2019-01-06T15:59:33.433Z,77.13
2019-01-06T16:02:27.779Z,77.37
2019-01-06T16:05:17.171Z,77.55
2019-01-06T16:08:18.531Z,77.29
2019-01-06T16:11:23.002Z,77.24
2019-01-06T16:14:19.072Z,77.28
2019-01-06T16:17:07.373Z,77.45
2019-01-06T16:20:05.847Z,77.70
2019-01-06T16:22:55.446Z,78.10
2019-01-06T16:26:04.947Z,78.25
2019-01-06T16:28:54.379Z,78.46
2019-01-06T16:31:40.388Z,78.65
2019-01-06T16:34:28.886Z,78.77
2019-01-06T16:37:17.840Z,78.87
2019-01-06T16:40:09.930Z,78.94
2019-01-06T16:43:13.033Z,79.01
2019-01-06T16:46:00.883Z,79.02
2019-01-06T16:48:51.949Z,79.10
2019-01-06T16:51:44.554Z,79.23
2019-01-06T16:54:33.425Z,79.43
2019-01-06T16:57:26.021Z,79.64
2019-01-06T17:00:14.622Z,80.00
2019-01-06T17:03:22.625Z,80.29
2019-01-06T17:06:02.357Z,80.52
2019-01-06T17:09:01.863Z,80.78
2019-01-06T17:12:00.359Z,80.97
2019-01-06T17:14:48.364Z,81.25
2019-01-06T17:17:37.954Z,81.42
2019-01-06T17:20:27.527Z,81.53
2019-01-06T17:23:17.989Z,81.67
2019-01-06T17:26:12.316Z,81.79
2019-01-06T17:29:08.240Z,81.89
2019-01-06T17:31:56.533Z,81.99
2019-01-06T17:34:44.729Z,82.10
2019-01-06T17:37:38.559Z,82.20
2019-01-06T17:40:27.978Z,82.30
2019-01-06T17:43:32.641Z,82.39
2019-01-06T17:46:26.625Z,82.45
2019-01-06T17:49:16.213Z,82.53
2019-01-06T17:52:01.346Z,82.57
2019-01-06T17:54:50.068Z,82.62
2019-01-06T17:57:39.440Z,82.66
2019-01-06T18:00:48.048Z,82.70
2019-01-06T18:03:37.398Z,82.74
2019-01-06T18:06:26.787Z,82.77
2019-01-06T18:09:20.402Z,82.81
2019-01-06T18:12:07.131Z,82.86
2019-01-06T18:14:56.785Z,82.89
2019-01-06T18:17:45.315Z,82.92
2019-01-06T18:20:40.813Z,82.94
2019-01-06T18:23:29.423Z,82.96
2019-01-06T18:26:20.032Z,82.97
2019-01-06T18:29:09.505Z,83.01
2019-01-06T18:31:57.340Z,83.05
2019-01-06T18:34:57.917Z,83.08
2019-01-06T18:37:46.309Z,83.10
2019-01-06T18:40:35.889Z,83.13
2019-01-06T18:43:25.661Z,83.13
2019-01-06T18:46:18.161Z,83.17
2019-01-06T18:49:25.844Z,83.18
2019-01-06T18:52:15.539Z,83.21
2019-01-06T18:55:07.557Z,83.25
2019-01-06T18:58:06.091Z,83.24
2019-01-06T19:00:54.333Z,83.26
2019-01-06T19:03:43.394Z,83.26
2019-01-06T19:06:34.694Z,83.25
2019-01-06T19:09:25.661Z,83.28
2019-01-06T19:12:33.176Z,83.29
2019-01-06T19:15:46.828Z,83.33
2019-01-06T19:18:33.320Z,83.34
2019-01-06T19:21:35.307Z,83.36
2019-01-06T19:24:23.490Z,83.37
2019-01-06T19:27:28.219Z,83.35
2019-01-06T19:30:34.943Z,83.38
2019-01-06T19:33:29.968Z,83.39
2019-01-06T19:36:25.458Z,83.39
2019-01-06T19:39:18.460Z,83.39
2019-01-06T19:42:08.361Z,83.40
2019-01-06T19:45:09.898Z,83.39
2019-01-06T19:48:05.353Z,83.39
2019-01-06T19:50:54.828Z,83.40
2019-01-06T19:53:51.487Z,83.40
2019-01-06T19:56:40.030Z,83.41
2019-01-06T19:59:34.860Z,83.44
2019-01-06T20:02:23.331Z,83.43
2019-01-06T20:05:28.158Z,83.50
2019-01-06T20:08:29.486Z,83.51
2019-01-06T20:11:17.614Z,83.51
2019-01-06T20:14:07.183Z,83.53
2019-01-06T20:16:56.744Z,83.51
2019-01-06T20:19:45.765Z,83.54
2019-01-06T20:22:47.165Z,83.55
2019-01-06T20:25:34.423Z,83.61
2019-01-06T20:28:38.966Z,83.61
2019-01-06T20:31:28.582Z,83.56
2019-01-06T20:34:24.406Z,83.55
2019-01-06T20:37:13.589Z,83.57
2019-01-06T20:40:04.188Z,83.49
2019-01-06T20:42:50.209Z,83.44
2019-01-06T20:45:54.939Z,83.38
2019-01-06T20:48:59.741Z,83.31
2019-01-06T20:52:00.252Z,83.19
2019-01-06T20:54:58.836Z,83.12
2019-01-06T20:57:47.128Z,83.03
2019-01-06T21:00:31.569Z,82.96
2019-01-06T21:03:22.847Z,82.90
2019-01-06T21:06:17.901Z,82.79
2019-01-06T21:09:09.415Z,82.72
2019-01-06T21:12:04.823Z,82.73
2019-01-06T21:14:43.207Z,82.67
2019-01-06T21:17:23.833Z,82.63
2019-01-06T21:20:15.002Z,82.58
2019-01-06T21:23:21.269Z,82.41
2019-01-06T21:26:10.674Z,82.41
2019-01-06T21:28:58.455Z,82.49
2019-01-06T21:31:43.628Z,82.40
2019-01-06T21:34:31.629Z,82.30
2019-01-06T21:37:39.703Z,82.20
2019-01-06T21:40:27.054Z,82.10
2019-01-06T21:43:15.429Z,82.00
2019-01-06T21:46:04.912Z,81.63
2019-01-06T21:48:53.406Z,81.63
2019-01-06T21:51:38.628Z,81.60
2019-01-06T21:54:27.006Z,81.46
2019-01-06T21:57:23.685Z,81.27
2019-01-06T22:00:16.166Z,81.11
2019-01-06T22:03:05.775Z,80.81
2019-01-06T22:05:58.028Z,80.65
2019-01-06T22:09:02.843Z,80.56
2019-01-06T22:11:53.646Z,80.48
2019-01-06T22:15:03.163Z,80.39
2019-01-06T22:17:51.014Z,80.34
2019-01-06T22:20:43.274Z,80.30
2019-01-06T22:23:38.767Z,80.27
2019-01-06T22:26:28.007Z,80.20
2019-01-06T22:29:29.207Z,80.20
2019-01-06T22:32:27.519Z,80.17
2019-01-06T22:35:29.021Z,80.20
2019-01-06T22:38:17.388Z,80.24
2019-01-06T22:41:17.728Z,80.34
2019-01-06T22:44:10.361Z,80.41
2019-01-06T22:46:59.199Z,80.50
2019-01-06T22:50:01.790Z,80.59
2019-01-06T22:53:06.467Z,80.68
2019-01-06T22:56:10.929Z,80.73
2019-01-06T22:59:06.404Z,80.78
2019-01-06T23:01:58.800Z,80.79
2019-01-06T23:04:45.921Z,80.82
2019-01-06T23:07:51.078Z,80.80
2019-01-06T23:10:39.194Z,80.81
2019-01-06T23:13:40.866Z,80.81
2019-01-06T23:16:24.975Z,80.82
2019-01-06T23:19:27.593Z,80.84
2019-01-06T23:22:15.616Z,80.89
2019-01-06T23:25:14.126Z,80.87
2019-01-06T23:28:04.827Z,80.88
2019-01-06T23:30:53.087Z,80.90
2019-01-06T23:33:41.263Z,80.88
2019-01-06T23:36:42.902Z,80.89
2019-01-06T23:39:38.914Z,80.92
2019-01-06T23:42:33.712Z,81.04
2019-01-06T23:45:23.225Z,81.15
2019-01-06T23:48:22.049Z,81.24
2019-01-06T23:51:05.966Z,81.44
2019-01-06T23:53:54.156Z,81.55
2019-01-06T23:56:43.593Z,81.63
2019-01-06T23:59:32.880Z,81.71
